Buoy 46787

sailwx.info

Track history (hours):
 
Tides and Currents Weather Stations Pressure Air Temp Water Temp Dewpoint Dewpoint Depression Visibility Wind Speed Wind Dir Waves Ship Positions

Drifting buoy 46787

Last reported at 2017-Nov-22 13:00 UTC. Time now 2017-Nov-22 15:03 UTC.
Position N 46°37' W 150°29'.

Water temperature 10.1 ° C

Date/timePositionNaut miles runAvg speedWind from/ knotsBaromVisibWave heightAir tempDewpointWater temp
2017-Nov-22 13:00N 46°37' W 150°29'0 0.0 10.1
2017-Nov-22 07:00N 46°37' W 150°29'1 0.7 10.1
2017-Nov-22 05:00N 46°37' W 150°27'0 0.0 10.1
2017-Nov-22 04:00N 46°37' W 150°27'1 0.1 10.1
2017-Nov-21 18:00N 46°38' W 150°26'0 0.0 10.1
2017-Nov-21 17:00N 46°38' W 150°26'1 0.8 10.1
2017-Nov-21 16:00N 46°38' W 150°25'0 0.0 10.1
2017-Nov-21 15:00N 46°38' W 150°25'0 0.0 10.1
2017-Nov-21 14:00N 46°38' W 150°25'2 0.3 10.1
2017-Nov-21 07:00N 46°40' W 150°25'0 0.4 10.2
2017-Nov-21 06:00N 46°40' W 150°25'1 0.7 10.2
2017-Nov-21 05:00N 46°40' W 150°25'1 1.0 10.2
2017-Nov-21 04:00N 46°40' W 150°26'0 0.0 10.2
2017-Nov-21 03:00N 46°40' W 150°26'3 0.5 10.2
2017-Nov-20 22:00N 46°39' W 150°23'3 0.5 10.2
2017-Nov-20 16:00N 46°42' W 150°24'1 1.4 10.2
2017-Nov-20 15:00N 46°43' W 150°22'3 3.1 10.2
2017-Nov-20 14:00N 46°41' W 150°26'0 0.0 10.2
2017-Nov-20 13:00N 46°41' W 150°26'1 0.2 10.2
2017-Nov-20 08:00N 46°41' W 150°25'0 0.0 10.2
2017-Nov-20 07:00N 46°41' W 150°25'1 0.6 10.2
2017-Nov-20 06:00N 46°41' W 150°25'1 0.7 10.2
2017-Nov-20 05:00N 46°41' W 150°25'1 0.7 10.2
2017-Nov-20 04:00N 46°42' W 150°24'1 0.6 10.2
2017-Nov-20 03:00N 46°43' W 150°24'2 0.3 10.2
2017-Nov-19 20:00N 46°44' W 150°26'0 0.4 10.2
2017-Nov-19 19:00N 46°44' W 150°26'0 0.4 10.2
2017-Nov-19 18:00N 46°44' W 150°27'0 0.0 10.2
2017-Nov-19 17:00N 46°44' W 150°27'0 0.0 10.2
2017-Nov-19 15:00N 46°44' W 150°27'0 0.0 10.2
2017-Nov-19 14:00N 46°44' W 150°27'1 0.6 10.2
2017-Nov-19 13:00N 46°44' W 150°27'0 0.0 10.2
2017-Nov-19 08:00N 46°44' W 150°27'1 0.7 10.2
2017-Nov-19 06:00N 46°45' W 150°26'1 0.7 10.2
2017-Nov-19 05:00N 46°46' W 150°26'0 0.0 10.2
2017-Nov-19 04:00N 46°46' W 150°26'2 0.2 10.3
2017-Nov-18 19:00N 46°46' W 150°24'0 0.0 10.3
2017-Nov-18 18:00N 46°46' W 150°24'1 0.4 10.3
2017-Nov-18 15:00N 46°47' W 150°23'1 0.7 10.3
2017-Nov-18 14:00N 46°46' W 150°24'1 0.2 10.3
2017-Nov-18 07:00N 46°46' W 150°26'1 0.8 10.3
2017-Nov-18 06:00N 46°46' W 150°25'1 0.8 10.3
2017-Nov-18 05:00N 46°46' W 150°23'1 0.7 10.3
2017-Nov-18 04:00N 46°47' W 150°24'0 0.0 10.3
2017-Nov-18 03:00N 46°47' W 150°24'0 0.0 10.3
2017-Nov-18 02:00N 46°47' W 150°24'2 0.2 10.3
2017-Nov-17 16:00N 46°48' W 150°26'1 1.2 10.3
2017-Nov-17 15:00N 46°48' W 150°25'1 1.2 10.3
2017-Nov-17 14:00N 46°47' W 150°25'1 0.1 10.3
2017-Nov-17 07:00N 46°47' W 150°23'1 0.6 10.3
2017-Nov-17 05:00N 46°48' W 150°24'0 0.0 10.3
2017-Nov-17 03:00N 46°48' W 150°24'2 0.2 10.4
2017-Nov-16 19:00N 46°46' W 150°25'1 0.7 10.4
2017-Nov-16 18:00N 46°47' W 150°24'0 0.0 10.4
2017-Nov-16 17:00N 46°47' W 150°24'1 0.7 10.4
2017-Nov-16 15:00N 46°48' W 150°25'2 1.0 10.4
2017-Nov-16 13:00N 46°47' W 150°28'0 0.0 10.3
2017-Nov-16 07:00N 46°47' W 150°28'0 0.0 10.4
2017-Nov-16 06:00N 46°47' W 150°28'1 1.2 10.3
2017-Nov-16 05:00N 46°47' W 150°26'1 1.0 10.4
2017-Nov-16 04:00N 46°47' W 150°27'0 0.0 10.3
2017-Nov-16 03:00N 46°47' W 150°27'1 0.1 10.3
2017-Nov-15 15:00N 46°48' W 150°28'0 0.0 10.4
2017-Nov-15 14:00N 46°48' W 150°28'1 0.6 10.4
2017-Nov-15 13:00N 46°47' W 150°28'1 0.2 10.4
2017-Nov-15 08:00N 46°47' W 150°27'0 0.0 10.4
2017-Nov-15 07:00N 46°47' W 150°27'0 0.4 10.4
2017-Nov-15 06:00N 46°47' W 150°28'2 1.1 10.4
2017-Nov-15 04:00N 46°49' W 150°29'0 0.0 10.4
2017-Nov-15 02:00N 46°49' W 150°29'2 0.2 10.4
2017-Nov-14 18:00N 46°49' W 150°27'0 0.0 10.4
2017-Nov-14 16:00N 46°49' W 150°27'1 1.0 10.4
2017-Nov-14 15:00N 46°49' W 150°26'3 2.7 10.5
2017-Nov-14 14:00N 46°52' W 150°28'0 0.0 10.4
2017-Nov-14 08:00N 46°52' W 150°28'0 0.0 10.6
2017-Nov-14 06:00N 46°52' W 150°28'0 0.0 10.6
2017-Nov-14 05:00N 46°52' W 150°28'1 0.8 10.6
2017-Nov-14 04:00N 46°52' W 150°26'0 0.0 10.6
2017-Nov-14 03:00N 46°52' W 150°26'2 0.2 10.6
2017-Nov-13 17:00N 46°53' W 150°28'1 0.4 10.6
2017-Nov-13 15:00N 46°53' W 150°28'0 0.0 10.6
2017-Nov-13 13:00N 46°53' W 150°28'0 0.1 10.6
2017-Nov-13 07:00N 46°53' W 150°27'0 0.4 10.7
2017-Nov-13 06:00N 46°53' W 150°28'0 0.4 10.7
2017-Nov-13 05:00N 46°53' W 150°27'1 0.7 10.7
2017-Nov-13 04:00N 46°54' W 150°28'0 0.0 10.7
2017-Nov-13 03:00N 46°54' W 150°28'1 0.1 10.7
2017-Nov-12 15:00N 46°54' W 150°26'1 0.7 10.7
2017-Nov-12 14:00N 46°55' W 150°26'1 1.3 10.7
2017-Nov-12 13:00N 46°53' W 150°26'   10.7
Track history (hours):
 
Tides and Currents Weather Stations Pressure Air Temp Water Temp Dewpoint Dewpoint Depression Visibility Wind Speed Wind Dir Waves Ship Positions

Drifting buoy 46787

Last reported at 2017-Nov-22 13:00 UTC. Time now 2017-Nov-22 15:03 UTC.
Position N 46°37' W 150°29'.

Water temperature 10.1 ° C

Date/timePositionNaut miles runAvg speedWind from/ knotsBaromVisibWave heightAir tempDewpointWater temp
2017-Nov-22 13:00N 46°37' W 150°29'0 0.0 10.1
2017-Nov-22 07:00N 46°37' W 150°29'1 0.7 10.1
2017-Nov-22 05:00N 46°37' W 150°27'0 0.0 10.1
2017-Nov-22 04:00N 46°37' W 150°27'1 0.1 10.1
2017-Nov-21 18:00N 46°38' W 150°26'0 0.0 10.1
2017-Nov-21 17:00N 46°38' W 150°26'1 0.8 10.1
2017-Nov-21 16:00N 46°38' W 150°25'0 0.0 10.1
2017-Nov-21 15:00N 46°38' W 150°25'0 0.0 10.1
2017-Nov-21 14:00N 46°38' W 150°25'2 0.3 10.1
2017-Nov-21 07:00N 46°40' W 150°25'0 0.4 10.2
2017-Nov-21 06:00N 46°40' W 150°25'1 0.7 10.2
2017-Nov-21 05:00N 46°40' W 150°25'1 1.0 10.2
2017-Nov-21 04:00N 46°40' W 150°26'0 0.0 10.2
2017-Nov-21 03:00N 46°40' W 150°26'3 0.5 10.2
2017-Nov-20 22:00N 46°39' W 150°23'3 0.5 10.2
2017-Nov-20 16:00N 46°42' W 150°24'1 1.4 10.2
2017-Nov-20 15:00N 46°43' W 150°22'3 3.1 10.2
2017-Nov-20 14:00N 46°41' W 150°26'0 0.0 10.2
2017-Nov-20 13:00N 46°41' W 150°26'1 0.2 10.2
2017-Nov-20 08:00N 46°41' W 150°25'0 0.0 10.2
2017-Nov-20 07:00N 46°41' W 150°25'1 0.6 10.2
2017-Nov-20 06:00N 46°41' W 150°25'1 0.7 10.2
2017-Nov-20 05:00N 46°41' W 150°25'1 0.7 10.2
2017-Nov-20 04:00N 46°42' W 150°24'1 0.6 10.2
2017-Nov-20 03:00N 46°43' W 150°24'2 0.3 10.2
2017-Nov-19 20:00N 46°44' W 150°26'0 0.4 10.2
2017-Nov-19 19:00N 46°44' W 150°26'0 0.4 10.2
2017-Nov-19 18:00N 46°44' W 150°27'0 0.0 10.2
2017-Nov-19 17:00N 46°44' W 150°27'0 0.0 10.2
2017-Nov-19 15:00N 46°44' W 150°27'0 0.0 10.2
2017-Nov-19 14:00N 46°44' W 150°27'1 0.6 10.2
2017-Nov-19 13:00N 46°44' W 150°27'0 0.0 10.2
2017-Nov-19 08:00N 46°44' W 150°27'1 0.7 10.2
2017-Nov-19 06:00N 46°45' W 150°26'1 0.7 10.2
2017-Nov-19 05:00N 46°46' W 150°26'0 0.0 10.2
2017-Nov-19 04:00N 46°46' W 150°26'2 0.2 10.3
2017-Nov-18 19:00N 46°46' W 150°24'0 0.0 10.3
2017-Nov-18 18:00N 46°46' W 150°24'1 0.4 10.3
2017-Nov-18 15:00N 46°47' W 150°23'1 0.7 10.3
2017-Nov-18 14:00N 46°46' W 150°24'1 0.2 10.3
2017-Nov-18 07:00N 46°46' W 150°26'1 0.8 10.3
2017-Nov-18 06:00N 46°46' W 150°25'1 0.8 10.3
2017-Nov-18 05:00N 46°46' W 150°23'1 0.7 10.3
2017-Nov-18 04:00N 46°47' W 150°24'0 0.0 10.3
2017-Nov-18 03:00N 46°47' W 150°24'0 0.0 10.3
2017-Nov-18 02:00N 46°47' W 150°24'2 0.2 10.3
2017-Nov-17 16:00N 46°48' W 150°26'1 1.2 10.3
2017-Nov-17 15:00N 46°48' W 150°25'1 1.2 10.3
2017-Nov-17 14:00N 46°47' W 150°25'1 0.1 10.3
2017-Nov-17 07:00N 46°47' W 150°23'1 0.6 10.3
2017-Nov-17 05:00N 46°48' W 150°24'0 0.0 10.3
2017-Nov-17 03:00N 46°48' W 150°24'2 0.2 10.4
2017-Nov-16 19:00N 46°46' W 150°25'1 0.7 10.4
2017-Nov-16 18:00N 46°47' W 150°24'0 0.0 10.4
2017-Nov-16 17:00N 46°47' W 150°24'1 0.7 10.4
2017-Nov-16 15:00N 46°48' W 150°25'2 1.0 10.4
2017-Nov-16 13:00N 46°47' W 150°28'0 0.0 10.3
2017-Nov-16 07:00N 46°47' W 150°28'0 0.0 10.4
2017-Nov-16 06:00N 46°47' W 150°28'1 1.2 10.3
2017-Nov-16 05:00N 46°47' W 150°26'1 1.0 10.4
2017-Nov-16 04:00N 46°47' W 150°27'0 0.0 10.3
2017-Nov-16 03:00N 46°47' W 150°27'1 0.1 10.3
2017-Nov-15 15:00N 46°48' W 150°28'0 0.0 10.4
2017-Nov-15 14:00N 46°48' W 150°28'1 0.6 10.4
2017-Nov-15 13:00N 46°47' W 150°28'1 0.2 10.4
2017-Nov-15 08:00N 46°47' W 150°27'0 0.0 10.4
2017-Nov-15 07:00N 46°47' W 150°27'0 0.4 10.4
2017-Nov-15 06:00N 46°47' W 150°28'2 1.1 10.4
2017-Nov-15 04:00N 46°49' W 150°29'0 0.0 10.4
2017-Nov-15 02:00N 46°49' W 150°29'2 0.2 10.4
2017-Nov-14 18:00N 46°49' W 150°27'0 0.0 10.4
2017-Nov-14 16:00N 46°49' W 150°27'1 1.0 10.4
2017-Nov-14 15:00N 46°49' W 150°26'3 2.7 10.5
2017-Nov-14 14:00N 46°52' W 150°28'0 0.0 10.4
2017-Nov-14 08:00N 46°52' W 150°28'0 0.0 10.6
2017-Nov-14 06:00N 46°52' W 150°28'0 0.0 10.6
2017-Nov-14 05:00N 46°52' W 150°28'1 0.8 10.6
2017-Nov-14 04:00N 46°52' W 150°26'0 0.0 10.6
2017-Nov-14 03:00N 46°52' W 150°26'2 0.2 10.6
2017-Nov-13 17:00N 46°53' W 150°28'1 0.4 10.6
2017-Nov-13 15:00N 46°53' W 150°28'0 0.0 10.6
2017-Nov-13 13:00N 46°53' W 150°28'0 0.1 10.6
2017-Nov-13 07:00N 46°53' W 150°27'0 0.4 10.7
2017-Nov-13 06:00N 46°53' W 150°28'0 0.4 10.7
2017-Nov-13 05:00N 46°53' W 150°27'1 0.7 10.7
2017-Nov-13 04:00N 46°54' W 150°28'0 0.0 10.7
2017-Nov-13 03:00N 46°54' W 150°28'1 0.1 10.7
2017-Nov-12 15:00N 46°54' W 150°26'1 0.7 10.7
2017-Nov-12 14:00N 46°55' W 150°26'1 1.3 10.7
2017-Nov-12 13:00N 46°53' W 150°26'   10.7

Dump ship's entire track history